Time;durP1;ratioP1;P1;durP2;ratioP2;P2;SDS_P1;SDS_P2;PMS_P1;PMS_P2;Temp;Humidity;BMP_temperature;BMP_pressure;BME280_temperature;BME280_humidity;BME280_pressure;Samples;Min_cycle;Max_cycle;Signal;HPM_P1;HPM_P2
2022/11/19 00:04:44;;;;;;;8.50;5.53;;;8.10;1.00;;;;;;5082767;28;20444;-85
2022/11/19 00:07:09;;;;;;;6.07;4.83;;;8.10;1.00;;;;;;5098852;28;20441;-85
2022/11/19 00:09:41;;;;;;;6.93;5.30;;;8.20;1.00;;;;;;5088106;28;20190;-84
2022/11/19 00:15:11;;;;;;;9.20;5.67;;;8.00;1.00;;;;;;5083361;28;20468;-84
2022/11/19 00:18:11;;;;;;;8.33;5.57;;;7.80;1.00;;;;;;5077955;28;20892;-84
2022/11/19 00:20:49;;;;;;;11.63;5.40;;;7.80;1.00;;;;;;5074024;28;20559;-84
2022/11/19 00:23:15;;;;;;;7.83;5.63;;;7.70;1.00;;;;;;5074841;28;20438;-85
2022/11/19 00:29:11;;;;;;;6.00;4.90;;;7.50;1.00;;;;;;5087446;28;20190;-84
2022/11/19 00:34:59;;;;;;;7.33;5.97;;;7.40;1.00;;;;;;5073751;28;20460;-85
2022/11/19 00:37:35;;;;;;;6.90;5.30;;;7.40;1.00;;;;;;5080806;28;20401;-86
2022/11/19 00:49:52;;;;;;;10.90;6.43;;;7.40;1.00;;;;;;5093882;28;20541;-85
2022/11/19 00:52:47;;;;;;;9.20;6.70;;;7.30;1.00;;;;;;5072866;28;20417;-84
2022/11/19 00:55:23;;;;;;;8.07;6.47;;;7.30;1.00;;;;;;5073476;28;20526;-83
2022/11/19 00:58:05;;;;;;;11.03;7.43;;;7.30;1.00;;;;;;5075149;28;20922;-83
2022/11/19 01:00:35;;;;;;;9.13;6.20;;;7.20;1.00;;;;;;5088348;28;20405;-84
2022/11/19 01:03:05;;;;;;;10.70;6.40;;;7.20;1.00;;;;;;5077468;28;20958;-83
2022/11/19 01:06:16;;;;;;;8.47;6.50;;;7.20;1.00;;;;;;5092059;28;20428;-84
2022/11/19 01:13:33;;;;;;;7.73;6.60;;;7.00;1.00;;;;;;5075994;28;20405;-84
2022/11/19 01:18:44;;;;;;;9.20;6.87;;;6.90;1.00;;;;;;5083950;28;20431;-84
2022/11/19 01:22:05;;;;;;;8.13;5.97;;;6.90;1.00;;;;;;5075547;28;20977;-84
2022/11/19 01:27:52;;;;;;;8.00;6.37;;;6.80;1.00;;;;;;5076917;28;20921;-84
2022/11/19 01:30:41;;;;;;;11.07;7.30;;;6.70;1.00;;;;;;5093672;28;20412;-84
2022/11/19 01:36:44;;;;;;;9.00;6.50;;;6.60;1.00;;;;;;5077730;28;20377;-85
2022/11/19 01:42:48;;;;;;;9.33;6.50;;;6.60;1.00;;;;;;5081911;28;20465;-84
2022/11/19 01:52:01;;;;;;;12.03;7.73;;;6.40;1.00;;;;;;5078951;28;20760;-84
2022/11/19 02:01:18;;;;;;;13.63;8.67;;;6.30;1.00;;;;;;5090100;28;20461;-84
2022/11/19 02:03:53;;;;;;;18.03;9.07;;;6.30;1.00;;;;;;5083237;28;20431;-84
2022/11/19 02:06:33;;;;;;;12.53;8.87;;;6.20;1.00;;;;;;5088331;28;20407;-84
2022/11/19 02:08:58;;;;;;;13.53;8.60;;;6.10;1.00;;;;;;5096428;28;20412;-84
2022/11/19 02:12:05;;;;;;;12.07;8.77;;;6.10;1.00;;;;;;5094472;28;20424;-84
2022/11/19 02:15:07;;;;;;;15.23;9.20;;;6.10;1.00;;;;;;5090968;28;20202;-84
2022/11/19 02:17:59;;;;;;;14.57;10.03;;;6.10;1.00;;;;;;5095682;28;20868;-83
2022/11/19 02:21:11;;;;;;;13.43;9.60;;;6.00;1.00;;;;;;5080324;28;20436;-84
2022/11/19 02:27:36;;;;;;;14.30;10.00;;;5.80;1.00;;;;;;5084778;28;20544;-83
2022/11/19 02:30:41;;;;;;;14.07;10.33;;;5.80;1.00;;;;;;5077662;28;20409;-83
2022/11/19 02:40:18;;;;;;;15.77;10.63;;;5.60;1.00;;;;;;5087586;28;20442;-83
2022/11/19 02:43:23;;;;;;;15.97;11.00;;;5.60;1.00;;;;;;5075285;28;20408;-83
2022/11/19 02:46:00;;;;;;;16.30;11.00;;;5.60;1.00;;;;;;5082209;28;20444;-84
2022/11/19 02:48:53;;;;;;;17.40;10.87;;;5.50;1.00;;;;;;5079643;28;20404;-84
2022/11/19 02:51:23;;;;;;;18.97;10.80;;;5.50;1.00;;;;;;5091884;28;20420;-83
2022/11/19 02:57:12;;;;;;;16.60;11.33;;;5.50;1.00;;;;;;5085617;28;20890;-84
2022/11/19 03:06:33;;;;;;;23.30;11.00;;;5.30;1.00;;;;;;5089337;28;20421;-83
2022/11/19 03:09:38;;;;;;;17.40;11.43;;;5.40;1.00;;;;;;5089326;28;20519;-83
2022/11/19 03:12:27;;;;;;;17.67;12.00;;;5.40;1.00;;;;;;5086902;28;20409;-83
2022/11/19 03:21:53;;;;;;;20.10;12.00;;;5.30;1.00;;;;;;5079605;28;20883;-84
2022/11/19 03:27:46;;;;;;;20.00;12.90;;;5.30;1.00;;;;;;5076874;28;20396;-84
2022/11/19 03:30:35;;;;;;;20.67;12.70;;;5.30;1.00;;;;;;5092480;28;20478;-84
2022/11/19 03:39:46;;;;;;;21.20;12.93;;;5.10;1.00;;;;;;5083963;28;20806;-83
2022/11/19 03:45:50;;;;;;;19.33;11.80;;;5.10;1.00;;;;;;5075487;28;20408;-83
2022/11/19 03:48:30;;;;;;;17.63;11.53;;;5.10;1.00;;;;;;5074285;28;20398;-84
2022/11/19 03:51:16;;;;;;;19.13;11.80;;;5.10;1.00;;;;;;5074950;28;20424;-84
2022/11/19 03:53:59;;;;;;;18.80;12.03;;;5.20;1.00;;;;;;5074004;28;20554;-84
2022/11/19 03:56:48;;;;;;;17.80;11.70;;;5.20;1.00;;;;;;5073765;28;20460;-85
2022/11/19 04:02:59;;;;;;;17.67;11.33;;;5.30;1.00;;;;;;5076673;28;20400;-84
2022/11/19 04:06:05;;;;;;;16.97;10.37;;;5.30;1.00;;;;;;5090999;28;20877;-84
2022/11/19 04:08:59;;;;;;;18.50;11.73;;;5.30;1.00;;;;;;5087785;28;20534;-84
2022/11/19 04:12:05;;;;;;;17.77;11.10;;;5.30;1.00;;;;;;5088706;28;20469;-84
2022/11/19 04:14:48;;;;;;;20.13;11.50;;;5.30;1.00;;;;;;5074574;28;20457;-84
2022/11/19 04:20:35;;;;;;;16.27;10.63;;;5.30;1.00;;;;;;5079119;28;20927;-84
2022/11/19 04:23:53;;;;;;;18.20;11.17;;;5.30;1.00;;;;;;5072954;28;20429;-84
2022/11/19 04:33:02;;;;;;;15.67;10.20;;;5.40;1.00;;;;;;5084261;28;20638;-83
2022/11/19 04:38:50;;;;;;;17.80;11.27;;;5.40;1.00;;;;;;5077808;28;20608;-83
2022/11/19 04:41:36;;;;;;;15.87;11.20;;;5.40;1.00;;;;;;5074675;28;20432;-84
2022/11/19 04:44:06;;;;;;;16.47;9.83;;;5.50;1.00;;;;;;5093987;28;20220;-84
2022/11/19 04:46:41;;;;;;;15.50;9.37;;;5.50;1.00;;;;;;5084528;28;20433;-84
2022/11/19 04:49:11;;;;;;;12.33;8.60;;;5.50;1.00;;;;;;5094290;28;20419;-83
2022/11/19 04:52:23;;;;;;;9.87;6.90;;;5.50;1.00;;;;;;5079431;28;20954;-90
2022/11/19 04:55:11;;;;;;;8.90;5.80;;;5.40;1.00;;;;;;5088122;28;20485;-84
2022/11/19 04:57:53;;;;;;;7.73;6.07;;;5.50;1.00;;;;;;5094048;28;20911;-83
2022/11/19 05:00:59;;;;;;;9.87;5.93;;;5.40;1.00;;;;;;5076003;28;20824;-83
2022/11/19 05:03:24;;;;;;;7.20;5.40;;;5.50;1.00;;;;;;5074256;28;20429;-83
2022/11/19 05:06:30;;;;;;;9.20;5.53;;;5.60;1.00;;;;;;5078566;28;20469;-83
2022/11/19 05:12:29;;;;;;;7.20;5.93;;;5.60;1.00;;;;;;5073728;28;20451;-83
2022/11/19 05:18:59;;;;;;;7.87;6.13;;;5.50;1.00;;;;;;5086726;28;20412;-83
2022/11/19 05:21:24;;;;;;;7.03;5.90;;;5.50;1.00;;;;;;5080392;28;20425;-83
2022/11/19 05:30:34;;;;;;;8.07;5.60;;;5.50;1.00;;;;;;5091319;28;20435;-84
2022/11/19 05:33:29;;;;;;;7.70;5.77;;;5.40;1.00;;;;;;5093414;28;20428;-83
2022/11/19 05:36:05;;;;;;;7.10;5.67;;;5.40;1.00;;;;;;5092312;28;20198;-84
2022/11/19 05:41:53;;;;;;;7.23;6.10;;;5.40;1.00;;;;;;5088710;28;20447;-83
2022/11/19 05:48:11;;;;;;;7.97;6.00;;;5.30;1.00;;;;;;5081745;28;20813;-83
2022/11/19 05:51:29;;;;;;;7.97;6.47;;;5.30;1.00;;;;;;5081227;28;20417;-83
2022/11/19 05:57:53;;;;;;;15.53;7.60;;;5.30;1.00;;;;;;5077071;28;20400;-83
2022/11/19 06:00:35;;;;;;;13.60;7.17;;;5.20;1.00;;;;;;5085355;28;20479;-83
2022/11/19 06:03:35;;;;;;;10.60;7.60;;;5.20;1.00;;;;;;5074127;28;20445;-83
2022/11/19 06:06:31;;;;;;;11.17;7.60;;;5.20;1.00;;;;;;5086986;28;20436;-84
2022/11/19 06:08:56;;;;;;;11.10;8.20;;;5.20;1.00;;;;;;5076667;28;20448;-84
2022/11/19 06:14:44;;;;;;;10.33;7.87;;;5.20;1.00;;;;;;5076695;28;20224;-83
2022/11/19 06:17:11;;;;;;;10.20;7.00;;;5.00;1.00;;;;;;5089899;28;20425;-84
2022/11/19 06:19:47;;;;;;;9.23;7.00;;;5.10;1.00;;;;;;5093181;28;20163;-84
2022/11/19 06:22:29;;;;;;;11.53;7.77;;;5.10;1.00;;;;;;5075742;28;20470;-84
2022/11/19 06:25:06;;;;;;;13.83;7.10;;;5.10;1.00;;;;;;5088133;28;20518;-83
2022/11/19 06:28:23;;;;;;;16.20;8.60;;;5.00;1.00;;;;;;5081061;28;20431;-87
2022/11/19 06:30:53;;;;;;;12.68;8.88;;;5.00;1.00;;;;;;5094815;28;20439;-85
2022/11/19 06:33:29;;;;;;;12.25;8.85;;;4.90;1.00;;;;;;5090485;28;20638;-85
2022/11/19 06:36:29;;;;;;;11.30;8.10;;;4.90;1.00;;;;;;5080969;28;20677;-84
2022/11/19 06:38:55;;;;;;;13.80;9.32;;;4.80;1.00;;;;;;5085768;28;20432;-76
2022/11/19 06:41:29;;;;;;;12.77;8.90;;;4.80;1.00;;;;;;5088969;28;20187;-83
2022/11/19 06:44:00;;;;;;;12.32;8.55;;;4.80;1.00;;;;;;5077587;28;20183;-80
2022/11/19 06:46:29;;;;;;;13.43;9.05;;;4.80;1.00;;;;;;5092337;28;20660;-86
2022/11/19 06:49:35;;;;;;;13.50;8.93;;;4.80;1.00;;;;;;5096865;27;20179;-86
2022/11/19 06:52:05;;;;;;;13.83;9.00;;;4.70;1.00;;;;;;5088153;28;20181;-85
2022/11/19 06:55:12;;;;;;;17.73;8.80;;;4.70;1.00;;;;;;5091125;28;20444;-85
2022/11/19 06:58:02;;;;;;;21.93;10.43;;;4.70;1.00;;;;;;5092197;28;20962;-86
2022/11/19 07:00:28;;;;;;;13.73;9.68;;;4.60;1.00;;;;;;5083924;28;20469;-85
2022/11/19 07:03:00;;;;;;;14.30;10.23;;;4.50;1.00;;;;;;5078671;28;20515;-86
2022/11/19 07:05:29;;;;;;;14.53;10.07;;;4.60;1.00;;;;;;5087283;28;20529;-85
2022/11/19 07:08:00;;;;;;;16.42;10.73;;;4.60;1.00;;;;;;5091881;28;20436;-85
2022/11/19 07:10:55;;;;;;;17.85;11.45;;;4.60;1.00;;;;;;5094979;28;20676;-84
2022/11/19 07:13:21;;;;;;;18.90;12.00;;;4.60;1.00;;;;;;5087377;28;20194;-88
2022/11/19 07:15:54;;;;;;;17.53;11.60;;;4.50;1.00;;;;;;5082437;28;20448;-89
2022/11/19 07:18:25;;;;;;;15.70;10.03;;;4.50;1.00;;;;;;5087550;28;20614;-88
2022/11/19 07:21:17;;;;;;;18.30;11.57;;;4.60;1.00;;;;;;5077873;28;20424;-88
2022/11/19 07:23:55;;;;;;;17.60;11.50;;;4.60;1.00;;;;;;5083417;28;20425;-89
2022/11/19 07:29:54;;;;;;;18.10;11.20;;;4.60;1.00;;;;;;5078458;28;20409;-89
2022/11/19 07:32:24;;;;;;;16.63;11.17;;;4.60;1.00;;;;;;5082502;28;20958;-89
2022/11/19 07:35:24;;;;;;;13.95;10.48;;;4.70;1.00;;;;;;5081463;28;20455;-89
2022/11/19 07:37:54;;;;;;;14.75;9.63;;;4.70;1.00;;;;;;5079840;28;20187;-89
2022/11/19 07:40:54;;;;;;;16.02;10.07;;;4.70;1.00;;;;;;5081867;28;20197;-88
2022/11/19 07:43:24;;;;;;;16.13;9.80;;;4.60;1.00;;;;;;5074190;28;20175;-84
2022/11/19 07:45:54;;;;;;;14.32;9.80;;;4.60;1.00;;;;;;5072552;28;20558;-84
2022/11/19 07:48:20;;;;;;;17.83;10.13;;;4.70;1.00;;;;;;5094231;28;20183;-84
2022/11/19 07:51:06;;;;;;;16.00;10.23;;;4.70;1.00;;;;;;5092247;28;20182;-84
2022/11/19 07:53:42;;;;;;;15.50;9.93;;;4.70;1.00;;;;;;5074355;28;20248;-84
2022/11/19 07:56:12;;;;;;;15.32;10.18;;;4.70;1.00;;;;;;5085978;28;20457;-83
2022/11/19 07:59:06;;;;;;;16.83;10.73;;;4.70;1.00;;;;;;5087876;28;20175;-86
2022/11/19 08:01:53;;;;;;;15.80;9.57;;;4.70;1.00;;;;;;5080697;28;20420;-86
2022/11/19 08:07:41;;;;;;;13.20;9.20;;;4.60;1.00;;;;;;5079132;28;20440;-86
2022/11/19 08:13:54;;;;;;;14.83;9.57;;;4.60;1.00;;;;;;5078189;28;20185;-84
2022/11/19 08:19:24;;;;;;;14.20;10.07;;;4.50;1.00;;;;;;5074357;28;20416;-84
2022/11/19 08:21:50;;;;;;;15.87;10.37;;;4.50;1.00;;;;;;5082250;28;20629;-84
2022/11/19 08:24:19;;;;;;;15.00;10.70;;;4.50;1.00;;;;;;5078971;28;20432;-84
2022/11/19 08:26:54;;;;;;;14.80;9.50;;;4.40;1.00;;;;;;5080951;28;20194;-85
2022/11/19 08:29:24;;;;;;;15.83;9.50;;;4.50;1.00;;;;;;5084715;28;20432;-84
2022/11/19 08:32:11;;;;;;;16.00;10.43;;;4.40;1.00;;;;;;5073293;28;20478;-84
2022/11/19 08:38:18;;;;;;;15.17;10.50;;;4.40;1.00;;;;;;5073099;28;20416;-86
2022/11/19 08:47:36;;;;;;;18.00;10.67;;;4.60;1.00;;;;;;5091464;28;20231;-89
2022/11/19 08:50:06;;;;;;;14.40;9.63;;;4.60;1.00;;;;;;5083583;28;20429;-87
2022/11/19 08:55:54;;;;;;;12.13;8.50;;;4.70;1.00;;;;;;5081689;28;20513;-88
2022/11/19 08:58:36;;;;;;;10.70;8.33;;;4.60;1.00;;;;;;5103776;28;20823;-87
2022/11/19 09:01:10;;;;;;;12.60;9.03;;;4.70;1.00;;;;;;5082709;28;20648;-82
2022/11/19 09:03:43;;;;;;;12.03;7.97;;;4.70;1.00;;;;;;5078878;28;20432;-81
2022/11/19 09:06:32;;;;;;;11.43;8.00;;;4.70;1.00;;;;;;5084219;28;20436;-82
2022/11/19 09:09:18;;;;;;;13.57;8.97;;;4.70;1.00;;;;;;5085856;28;20502;-88
2022/11/19 09:11:48;;;;;;;10.90;7.93;;;4.70;1.00;;;;;;5085057;28;20424;-82
2022/11/19 09:14:24;;;;;;;10.33;7.73;;;4.80;1.00;;;;;;5082691;28;20464;-84
2022/11/19 09:16:54;;;;;;;11.60;7.40;;;4.80;1.00;;;;;;5078417;28;20429;-81
2022/11/19 09:19:41;;;;;;;11.55;8.00;;;4.80;1.00;;;;;;5087187;28;20423;-85
2022/11/19 09:22:12;;;;;;;11.77;7.50;;;4.80;1.00;;;;;;5077526;28;20257;-87
2022/11/19 09:24:48;;;;;;;12.53;8.70;;;4.80;1.00;;;;;;5076050;28;20641;-86
2022/11/19 09:27:14;;;;;;;10.30;6.73;;;4.90;1.00;;;;;;5074865;28;20494;-83
2022/11/19 09:29:39;;;;;;;9.27;6.80;;;4.90;1.00;;;;;;5092366;28;20437;-85
2022/11/19 09:32:18;;;;;;;8.00;6.60;;;4.80;1.00;;;;;;5077614;28;20174;-86
2022/11/19 09:35:00;;;;;;;8.50;6.50;;;4.80;1.00;;;;;;5087647;28;20202;-84
2022/11/19 09:40:52;;;;;;;7.05;5.15;;;4.90;1.00;;;;;;5084396;28;20981;-68
2022/11/19 09:43:39;;;;;;;6.85;5.30;;;4.90;1.00;;;;;;5080385;28;20272;-68
2022/11/19 09:46:36;;;;;;;12.50;5.03;;;4.90;1.00;;;;;;5073945;28;20178;-70
2022/11/19 09:49:23;;;;;;;6.37;4.97;;;5.00;1.00;;;;;;5073180;28;20179;-70
2022/11/19 09:52:13;;;;;;;5.53;4.80;;;5.00;1.00;;;;;;5072946;28;20428;-88
2022/11/19 09:54:55;;;;;;;6.53;5.20;;;5.00;1.00;;;;;;5076417;28;20481;-88
2022/11/19 10:01:00;;;;;;;5.50;5.00;;;5.00;1.00;;;;;;5085636;28;20470;-86
2022/11/19 10:03:31;;;;;;;7.50;5.27;;;4.90;1.00;;;;;;5082127;28;20505;-86
2022/11/19 10:06:06;;;;;;;7.47;5.57;;;5.00;1.00;;;;;;5082925;28;20417;-86
2022/11/19 10:09:01;;;;;;;5.93;4.70;;;5.00;1.00;;;;;;5086392;28;20795;-79
2022/11/19 10:14:55;;;;;;;6.90;5.70;;;5.10;1.00;;;;;;5098443;28;20788;-92
2022/11/19 10:17:32;;;;;;;7.60;6.00;;;5.10;1.00;;;;;;5082601;28;20416;-92
2022/11/19 10:20:30;;;;;;;8.07;6.23;;;5.20;1.00;;;;;;5077379;28;20446;-88
2022/11/19 10:23:41;;;;;;;8.50;6.53;;;5.20;1.00;;;;;;5089068;28;20401;-89
2022/11/19 10:26:45;;;;;;;14.17;7.93;;;5.20;1.00;;;;;;5055235;28;20689;-89
2022/11/19 10:32:46;;;;;;;10.80;7.50;;;5.30;1.00;;;;;;5054925;28;20998;-90
2022/11/19 10:38:40;;;;;;;11.90;7.80;;;5.30;1.00;;;;;;5055534;28;20421;-89
2022/11/19 10:48:23;;;;;;;9.23;7.17;;;5.30;1.00;;;;;;5055721;28;20761;-90
2022/11/19 11:01:43;;;;;;;11.13;7.10;;;5.30;1.00;;;;;;5059017;28;20377;-95
2022/11/19 11:07:52;;;;;;;9.63;7.50;;;5.30;1.00;;;;;;5088671;28;20422;-95
2022/11/19 11:11:01;;;;;;;8.60;7.00;;;5.40;1.00;;;;;;5101689;28;20412;-95
2022/11/19 11:16:50;;;;;;;10.50;7.30;;;5.20;1.00;;;;;;5096737;28;20772;-85
2022/11/19 11:19:25;;;;;;;11.20;7.30;;;5.20;1.00;;;;;;5091818;28;20819;-90
2022/11/19 11:28:35;;;;;;;11.43;7.33;;;5.00;1.00;;;;;;5090039;28;20824;-90
2022/11/19 11:34:37;;;;;;;11.80;8.30;;;5.10;1.00;;;;;;5087792;28;20598;-90
2022/11/19 11:37:25;;;;;;;11.20;7.97;;;5.10;1.00;;;;;;5078919;28;20412;-83
2022/11/19 11:39:55;;;;;;;12.40;8.13;;;5.10;1.00;;;;;;5080355;28;20423;-89
2022/11/19 11:46:08;;;;;;;11.97;8.60;;;5.10;1.00;;;;;;5085097;28;20936;-87
2022/11/19 11:49:24;;;;;;;12.53;8.50;;;5.20;1.00;;;;;;5082385;28;20442;-87
2022/11/19 11:55:31;;;;;;;10.57;7.30;;;5.30;1.00;;;;;;5086636;28;20459;-87
2022/11/19 11:58:33;;;;;;;10.90;8.07;;;5.20;1.00;;;;;;5079869;28;20393;-84
2022/11/19 12:01:17;;;;;;;11.73;8.30;;;5.30;1.00;;;;;;5002515;28;20466;-79
2022/11/19 12:03:57;;;;;;;15.57;8.80;;;5.40;1.00;;;;;;5016475;28;20421;-87
2022/11/19 12:06:47;;;;;;;10.57;7.80;;;5.40;1.00;;;;;;5033305;28;20449;-83
2022/11/19 12:09:31;;;;;;;12.70;7.40;;;5.50;1.00;;;;;;5006808;28;20935;-84
2022/11/19 12:12:11;;;;;;;12.82;8.23;;;5.60;1.00;;;;;;5015356;28;20434;-83
2022/11/19 12:15:18;;;;;;;9.67;7.40;;;5.70;1.00;;;;;;5027147;28;20226;-80
2022/11/19 12:18:09;;;;;;;11.80;7.93;;;5.80;1.00;;;;;;5029091;28;20427;-85
2022/11/19 12:21:08;;;;;;;12.50;8.60;;;5.80;1.00;;;;;;5032132;28;20792;-85
2022/11/19 12:27:16;;;;;;;10.40;7.80;;;5.90;1.00;;;;;;5033207;28;20510;-88
2022/11/19 12:30:04;;;;;;;10.53;7.97;;;6.00;1.00;;;;;;5032283;28;20411;-86
2022/11/19 12:39:54;;;;;;;13.97;8.23;;;6.00;1.00;;;;;;5085579;28;20443;-86
2022/11/19 12:42:54;;;;;;;12.67;7.57;;;6.00;1.00;;;;;;5083133;28;20966;-87
2022/11/19 12:49:30;;;;;;;12.80;7.83;;;6.00;1.00;;;;;;5081176;28;20439;-87
2022/11/19 12:52:41;;;;;;;11.60;7.67;;;6.00;1.00;;;;;;5086632;28;20421;-87
2022/11/19 12:55:18;;;;;;;14.50;8.93;;;6.00;1.00;;;;;;4990213;28;20803;-87
2022/11/19 12:58:24;;;;;;;13.20;9.10;;;6.00;1.00;;;;;;5007186;28;20424;-86
2022/11/19 13:00:58;;;;;;;12.53;9.27;;;6.00;1.00;;;;;;4989264;28;20559;-85
2022/11/19 13:06:53;;;;;;;13.53;9.27;;;5.90;1.00;;;;;;4996754;28;20420;-83
2022/11/19 13:10:00;;;;;;;15.50;9.00;;;5.80;1.00;;;;;;4990333;28;20440;-82
2022/11/19 13:12:40;;;;;;;12.77;8.50;;;5.60;1.00;;;;;;4995586;28;20428;-80
2022/11/19 13:15:36;;;;;;;14.83;8.97;;;5.60;1.00;;;;;;5012477;28;20450;-87
2022/11/19 13:18:16;;;;;;;18.73;8.67;;;5.70;1.00;;;;;;4982637;28;20442;-84
2022/11/19 13:21:30;;;;;;;13.33;8.97;;;5.70;1.00;;;;;;5011944;28;20411;-82
2022/11/19 13:24:24;;;;;;;13.93;9.63;;;5.70;1.00;;;;;;5011928;28;20428;-83
2022/11/19 13:26:51;;;;;;;13.30;8.53;;;5.60;1.00;;;;;;5011498;28;20416;-82
2022/11/19 13:29:38;;;;;;;13.23;8.67;;;5.60;1.00;;;;;;4998656;28;20419;-82
2022/11/19 13:32:37;;;;;;;14.03;9.43;;;5.60;1.00;;;;;;5037010;28;20788;-86
2022/11/19 13:35:37;;;;;;;15.63;9.33;;;5.60;1.00;;;;;;5083601;28;20456;-85
2022/11/19 13:38:22;;;;;;;13.97;9.33;;;5.60;1.00;;;;;;5074402;28;20397;-85
2022/11/19 13:41:04;;;;;;;14.30;9.00;;;5.70;1.00;;;;;;5086279;28;20488;-80
2022/11/19 13:46:44;;;;;;;19.70;9.80;;;5.70;1.00;;;;;;5075695;28;20396;-85
2022/11/19 13:49:54;;;;;;;12.77;9.13;;;5.70;1.00;;;;;;5083021;28;20428;-85
2022/11/19 13:56:24;;;;;;;16.10;9.80;;;5.70;1.00;;;;;;5073314;28;20874;-85
2022/11/19 13:59:27;;;;;;;13.10;8.70;;;5.60;1.00;;;;;;5074424;28;20432;-85
2022/11/19 14:02:26;;;;;;;22.60;11.30;;;5.60;1.00;;;;;;5081267;28;20420;-81
2022/11/19 14:05:38;;;;;;;16.90;10.77;;;5.50;1.00;;;;;;5073507;28;20984;-81
2022/11/19 14:12:02;;;;;;;15.47;10.90;;;5.50;1.00;;;;;;5039828;28;20404;-81
2022/11/19 14:30:36;;;;;;;19.30;11.40;;;5.50;1.00;;;;;;5050687;28;20919;-81
2022/11/19 14:33:48;;;;;;;18.13;11.10;;;5.40;1.00;;;;;;5038032;28;20433;-81
2022/11/19 14:36:24;;;;;;;16.13;10.97;;;5.40;1.00;;;;;;5001144;28;20499;-80
2022/11/19 14:39:16;;;;;;;17.33;11.17;;;5.30;1.00;;;;;;4997895;28;21156;-80
2022/11/19 14:42:18;;;;;;;18.27;11.73;;;5.30;1.00;;;;;;4993303;28;20512;-81
2022/11/19 14:45:04;;;;;;;17.23;10.43;;;5.30;1.00;;;;;;5014322;28;20492;-82
2022/11/19 14:48:01;;;;;;;17.57;11.03;;;5.30;1.00;;;;;;5030880;28;20457;-84
2022/11/19 14:51:02;;;;;;;16.70;9.90;;;5.20;1.00;;;;;;5021671;28;20438;-83
2022/11/19 14:53:58;;;;;;;14.60;10.43;;;5.10;1.00;;;;;;5022620;28;20423;-85
2022/11/19 14:56:47;;;;;;;15.97;10.23;;;5.10;1.00;;;;;;5014536;28;20553;-85
2022/11/19 14:59:27;;;;;;;18.43;11.33;;;5.10;1.00;;;;;;5023414;28;20428;-91
2022/11/19 15:02:30;;;;;;;18.33;11.60;;;5.10;1.00;;;;;;5028831;28;20408;-91
2022/11/19 15:08:17;;;;;;;20.80;12.20;;;5.00;1.00;;;;;;5032699;28;20483;-91
2022/11/19 15:17:54;;;;;;;21.60;13.17;;;4.90;1.00;;;;;;5090183;28;20768;-83
2022/11/19 15:20:24;;;;;;;20.43;12.83;;;4.90;1.00;;;;;;5075578;28;20463;-83
2022/11/19 15:23:24;;;;;;;21.20;13.20;;;4.90;1.00;;;;;;5079959;28;20413;-84
2022/11/19 15:26:30;;;;;;;21.73;13.07;;;4.90;1.00;;;;;;5085041;28;20413;-82
2022/11/19 15:29:33;;;;;;;20.67;12.68;;;5.00;1.00;;;;;;5082415;28;20520;-85
2022/11/19 15:32:30;;;;;;;19.10;12.00;;;5.00;1.00;;;;;;5074205;28;20185;-84
2022/11/19 15:35:17;;;;;;;18.40;11.83;;;5.00;1.00;;;;;;5078453;28;20874;-84
2022/11/19 15:38:11;;;;;;;19.97;12.40;;;4.90;1.00;;;;;;5075568;28;20425;-80
2022/11/19 15:41:24;;;;;;;17.17;11.30;;;4.90;1.00;;;;;;5077960;28;20432;-83
2022/11/19 15:43:56;;;;;;;20.80;13.00;;;5.00;1.00;;;;;;5082341;28;20408;-85
2022/11/19 15:46:57;;;;;;;19.03;12.00;;;5.00;1.00;;;;;;5091258;28;20429;-87
2022/11/19 15:49:27;;;;;;;21.07;12.00;;;5.00;1.00;;;;;;5090737;28;20455;-88
2022/11/19 15:51:54;;;;;;;19.50;12.60;;;5.00;1.00;;;;;;5082711;28;20420;-86
2022/11/19 15:55:14;;;;;;;20.13;12.30;;;4.90;1.00;;;;;;5082161;28;20413;-86
2022/11/19 15:57:59;;;;;;;19.67;12.23;;;4.90;1.00;;;;;;5047498;28;20506;-87
2022/11/19 16:00:44;;;;;;;16.97;10.90;;;5.00;1.00;;;;;;5037129;28;20501;-86
2022/11/19 16:03:24;;;;;;;18.53;11.03;;;5.00;1.00;;;;;;5037035;28;20943;-84
2022/11/19 16:06:26;;;;;;;21.57;12.17;;;5.00;1.00;;;;;;5016171;28;20426;-83
2022/11/19 16:09:17;;;;;;;19.07;12.50;;;4.90;1.00;;;;;;5035482;28;21006;-84
2022/11/19 16:17:54;;;;;;;18.67;12.10;;;4.90;1.00;;;;;;5051687;28;20481;-85
2022/11/19 16:27:54;;;;;;;21.40;13.17;;;4.80;1.00;;;;;;5045556;28;20464;-84
2022/11/19 16:30:27;;;;;;;23.07;12.37;;;4.80;1.00;;;;;;5052650;28;20418;-84
2022/11/19 16:33:25;;;;;;;22.30;13.87;;;4.80;1.00;;;;;;5104561;28;20416;-86
2022/11/19 16:36:16;;;;;;;22.75;12.77;;;4.80;1.00;;;;;;5081584;28;20505;-86
2022/11/19 16:38:54;;;;;;;21.87;13.73;;;4.90;1.00;;;;;;5082591;28;20595;-86
2022/11/19 16:44:28;;;;;;;24.83;13.20;;;4.90;1.00;;;;;;5084467;28;20388;-86
2022/11/19 16:46:55;;;;;;;21.20;13.37;;;4.80;1.00;;;;;;5075612;28;20478;-86
2022/11/19 16:49:29;;;;;;;22.33;13.50;;;4.90;1.00;;;;;;5086058;28;20415;-86
2022/11/19 16:51:56;;;;;;;22.57;13.33;;;4.80;1.00;;;;;;5080155;28;20421;-86
2022/11/19 16:58:00;;;;;;;20.67;13.33;;;4.80;1.00;;;;;;5087737;28;20822;-86
2022/11/19 17:00:55;;;;;;;23.20;13.70;;;4.80;1.00;;;;;;5082849;28;20469;-85
2022/11/19 17:03:21;;;;;;;19.95;13.00;;;4.90;1.00;;;;;;5075998;28;21018;-86
2022/11/19 17:05:56;;;;;;;21.60;13.73;;;4.80;1.00;;;;;;5074668;28;20189;-81
2022/11/19 17:08:32;;;;;;;21.10;13.20;;;4.80;1.00;;;;;;5084236;28;20455;-79
2022/11/19 17:14:42;;;;;;;21.20;12.87;;;4.70;1.00;;;;;;5088767;28;20418;-79
2022/11/19 17:17:33;;;;;;;22.60;13.53;;;4.70;1.00;;;;;;5080099;28;20417;-80
2022/11/19 17:23:27;;;;;;;21.43;13.50;;;4.70;1.00;;;;;;5009274;28;20234;-83
2022/11/19 17:26:26;;;;;;;19.90;11.67;;;4.70;1.00;;;;;;5011484;28;20963;-86
2022/11/19 17:29:10;;;;;;;20.87;13.10;;;4.70;1.00;;;;;;5004237;28;20432;-83
2022/11/19 17:31:55;;;;;;;19.67;12.90;;;4.70;1.00;;;;;;5001837;28;20424;-83
2022/11/19 17:34:31;;;;;;;23.47;13.50;;;4.60;1.00;;;;;;5003393;28;20580;-78
2022/11/19 17:37:18;;;;;;;23.60;14.63;;;4.60;1.00;;;;;;4995459;28;20412;-80
2022/11/19 17:39:55;;;;;;;21.00;13.37;;;4.60;1.00;;;;;;5011917;28;20185;-78
2022/11/19 17:45:07;;;;;;;21.38;13.50;;;4.50;1.00;;;;;;5012226;28;20184;-79
2022/11/19 17:47:49;;;;;;;24.85;13.93;;;4.50;1.00;;;;;;5001309;28;20177;-79
2022/11/19 17:50:15;;;;;;;24.00;14.02;;;4.60;1.00;;;;;;4997934;28;20213;-79
2022/11/19 17:53:00;;;;;;;23.80;13.80;;;4.60;1.00;;;;;;5011735;28;20213;-81
2022/11/19 17:55:31;;;;;;;25.05;13.93;;;4.60;1.00;;;;;;5002439;28;20579;-79
2022/11/19 17:57:56;;;;;;;21.00;13.10;;;4.60;1.00;;;;;;5069728;28;20638;-79
2022/11/19 18:00:25;;;;;;;21.67;13.67;;;4.60;1.00;;;;;;5084357;28;20167;-77
2022/11/19 18:02:55;;;;;;;21.30;13.33;;;4.60;1.00;;;;;;5092601;28;20155;-77
2022/11/19 18:05:24;;;;;;;21.10;13.10;;;4.60;1.00;;;;;;5081720;28;20774;-79
2022/11/19 18:08:01;;;;;;;22.93;13.73;;;4.60;1.00;;;;;;5081992;28;20464;-79
2022/11/19 18:10:30;;;;;;;21.07;12.90;;;4.60;1.00;;;;;;5073121;28;20876;-78
2022/11/19 18:13:36;;;;;;;20.40;13.70;;;4.50;1.00;;;;;;5077133;28;20417;-78
2022/11/19 18:16:12;;;;;;;23.03;14.23;;;4.60;1.00;;;;;;5087066;28;20456;-78
2022/11/19 18:18:58;;;;;;;23.63;14.00;;;4.60;1.00;;;;;;5075505;28;20424;-78
2022/11/19 18:21:26;;;;;;;22.90;13.60;;;4.60;1.00;;;;;;5091957;28;20798;-78
2022/11/19 18:23:55;;;;;;;20.50;13.93;;;4.50;1.00;;;;;;5084352;28;20417;-78
2022/11/19 18:26:31;;;;;;;21.30;13.75;;;4.50;1.00;;;;;;5081191;28;20935;-78
2022/11/19 18:29:01;;;;;;;25.10;14.80;;;4.40;1.00;;;;;;5076326;28;20541;-78
2022/11/19 18:31:57;;;;;;;22.42;14.23;;;4.40;1.00;;;;;;5076446;28;20473;-78
2022/11/19 18:34:48;;;;;;;23.47;14.50;;;4.40;1.00;;;;;;5003752;28;20193;-83
2022/11/19 18:37:54;;;;;;;22.43;13.70;;;4.30;1.00;;;;;;4998547;28;20420;-84
2022/11/19 18:40:48;;;;;;;20.93;13.90;;;4.30;1.00;;;;;;5010194;28;20452;-83
2022/11/19 18:46:19;;;;;;;23.15;14.07;;;4.30;1.00;;;;;;5011856;28;20231;-83
2022/11/19 18:48:49;;;;;;;21.93;13.10;;;4.30;1.00;;;;;;5014418;28;20211;-82
2022/11/19 18:51:19;;;;;;;24.40;15.40;;;4.30;1.00;;;;;;5014657;28;20415;-80
2022/11/19 18:53:45;;;;;;;23.17;13.95;;;4.30;1.00;;;;;;5014364;28;20181;-79
2022/11/19 18:56:25;;;;;;;23.03;14.47;;;4.30;1.00;;;;;;5014033;28;20254;-79
2022/11/19 18:58:55;;;;;;;20.13;13.17;;;4.30;1.00;;;;;;5014319;28;20185;-80
2022/11/19 19:01:32;;;;;;;22.37;13.17;;;4.30;1.00;;;;;;5014245;28;20412;-79
2022/11/19 19:03:57;;;;;;;22.17;14.20;;;4.30;1.00;;;;;;5013889;28;20435;-79
2022/11/19 19:06:25;;;;;;;22.63;14.13;;;4.30;1.00;;;;;;4998789;28;20428;-85
2022/11/19 19:09:18;;;;;;;23.08;14.25;;;4.30;1.00;;;;;;4979371;28;20670;-85
2022/11/19 19:18:20;;;;;;;18.92;13.13;;;4.20;1.00;;;;;;5075932;28;20167;-85
2022/11/19 19:20:55;;;;;;;19.87;13.70;;;4.20;1.00;;;;;;5093270;28;20166;-79
2022/11/19 19:23:25;;;;;;;24.00;13.30;;;4.20;1.00;;;;;;5075250;28;20641;-77
2022/11/19 19:25:57;;;;;;;25.03;14.87;;;4.20;1.00;;;;;;5086074;28;20613;-79
2022/11/19 19:28:24;;;;;;;22.38;13.65;;;4.20;1.00;;;;;;5075443;28;20940;-79
2022/11/19 19:30:58;;;;;;;21.40;13.65;;;4.30;1.00;;;;;;5081496;28;20642;-79